Time;durP1;ratioP1;P1;durP2;ratioP2;P2;SDS_P1;SDS_P2;PMS_P1;PMS_P2;Temp;Humidity;BMP_temperature;BMP_pressure;BME280_temperature;BME280_humidity;BME280_pressure;Samples;Min_cycle;Max_cycle;Signal;HPM_P1;HPM_P2
2022/05/09 00:01:51;;;;;;;5.30;1.80;;;;;;;6.95;62.37;102077.55;105649;1287;62204;-82
2022/05/09 00:04:19;;;;;;;4.40;1.70;;;;;;;6.90;62.19;102077.58;105688;1287;61979;-82
2022/05/09 00:06:48;;;;;;;3.60;1.40;;;;;;;6.85;62.49;102078.13;105433;1288;76215;-82
2022/05/09 00:09:15;;;;;;;3.90;1.60;;;;;;;6.81;62.79;102074.41;105644;1287;71840;-82
2022/05/09 00:11:43;;;;;;;4.10;1.80;;;;;;;6.76;63.06;102070.22;105475;1287;74069;-82
2022/05/09 00:14:10;;;;;;;4.70;2.20;;;;;;;6.73;63.04;102071.10;105449;1287;62080;-81
2022/05/09 00:16:37;;;;;;;2.80;1.20;;;;;;;6.70;63.56;102070.61;105027;1287;62013;-82
2022/05/09 00:19:06;;;;;;;3.00;1.30;;;;;;;6.68;63.59;102068.31;105466;1287;76883;-83
2022/05/09 00:21:38;;;;;;;3.50;1.70;;;;;;;6.66;63.67;102071.99;105529;1287;71892;-83
2022/05/09 00:24:08;;;;;;;3.30;1.40;;;;;;;6.63;63.81;102068.16;106919;1287;73077;-82
2022/05/09 00:26:34;;;;;;;2.50;1.60;;;;;;;6.61;63.61;102068.52;106971;1287;60253;-83
2022/05/09 00:29:03;;;;;;;5.70;2.00;;;;;;;6.59;63.86;102065.70;106927;1287;60600;-83
2022/05/09 00:31:30;;;;;;;4.00;1.40;;;;;;;6.57;63.82;102065.64;106985;1287;77392;-83
2022/05/09 00:33:57;;;;;;;4.30;1.80;;;;;;;6.55;63.91;102066.16;107028;1287;72245;-82
2022/05/09 00:36:24;;;;;;;5.10;1.60;;;;;;;6.53;63.87;102067.52;107039;1287;73012;-82
2022/05/09 00:38:51;;;;;;;8.10;1.50;;;;;;;6.51;64.33;102069.38;107011;1286;61125;-82
2022/05/09 00:44:09;;;;;;;3.60;1.30;;;;;;;6.49;64.66;102068.34;106852;1287;73238;-82
2022/05/09 00:46:40;;;;;;;5.90;1.50;;;;;;;6.48;64.77;102072.61;107058;1287;72833;-83
2022/05/09 00:49:17;;;;;;;5.00;1.60;;;;;;;6.48;64.81;102079.67;106059;1287;73878;-83
2022/05/09 00:51:53;;;;;;;3.60;1.30;;;;;;;6.46;64.81;102078.23;105375;1287;62163;-84
2022/05/09 00:54:20;;;;;;;6.10;1.50;;;;;;;6.43;64.93;102076.54;105412;1286;62099;-82
2022/05/09 00:56:55;;;;;;;6.10;1.90;;;;;;;6.37;65.07;102080.30;105487;1287;75660;-83
2022/05/09 00:59:23;;;;;;;7.10;1.70;;;;;;;6.28;65.32;102079.02;105214;1288;72434;-82
2022/05/09 01:01:50;;;;;;;6.30;1.80;;;;;;;6.19;65.46;102081.27;105628;1286;74147;-82
2022/05/09 01:04:21;;;;;;;3.50;1.80;;;;;;;6.09;65.64;102079.16;105621;1287;60892;-82
2022/05/09 01:06:48;;;;;;;5.30;1.80;;;;;;;6.02;65.97;102083.23;105662;1286;60286;-82
2022/05/09 01:09:14;;;;;;;3.20;1.90;;;;;;;5.94;66.43;102079.56;105556;1287;76855;-83
2022/05/09 01:11:44;;;;;;;4.20;1.60;;;;;;;5.86;66.60;102078.51;105487;1287;62082;-82
2022/05/09 01:14:20;;;;;;;5.00;1.60;;;;;;;5.80;66.79;102078.95;105321;1287;74051;-82
2022/05/09 01:16:52;;;;;;;5.70;1.60;;;;;;;5.74;66.95;102078.48;105450;1287;62245;-82
2022/05/09 01:19:37;;;;;;;3.90;1.50;;;;;;;5.68;67.39;102077.85;105464;1287;62054;-82
2022/05/09 01:22:19;;;;;;;10.30;2.00;;;;;;;5.63;67.88;102079.14;105414;1287;75795;-82
2022/05/09 01:24:45;;;;;;;6.00;2.30;;;;;;;5.56;68.19;102082.73;105502;1287;71732;-85
2022/05/09 01:27:12;;;;;;;3.20;1.60;;;;;;;5.51;68.55;102081.00;106427;1284;61990;-82
2022/05/09 01:29:54;;;;;;;4.50;1.90;;;;;;;5.46;68.54;102082.58;106808;1288;60513;-83
2022/05/09 01:32:27;;;;;;;2.50;1.50;;;;;;;5.42;68.78;102081.65;105342;1287;62086;-81
2022/05/09 01:35:01;;;;;;;3.70;1.70;;;;;;;5.39;69.10;102077.33;107010;1286;74587;-82
2022/05/09 01:37:30;;;;;;;4.60;1.80;;;;;;;5.36;69.50;102078.20;106989;1287;71431;-82
2022/05/09 01:39:57;;;;;;;6.00;1.80;;;;;;;5.34;69.62;102077.11;106883;1285;73107;-82
2022/05/09 01:42:24;;;;;;;3.10;1.40;;;;;;;5.34;70.29;102076.27;106774;1287;60695;-82
2022/05/09 01:44:51;;;;;;;4.10;1.60;;;;;;;5.34;70.54;102075.52;106938;1287;60483;-82
2022/05/09 01:50:03;;;;;;;5.50;1.90;;;;;;;5.36;70.77;102075.55;106969;1287;71354;-82
2022/05/09 01:52:30;;;;;;;6.90;1.70;;;;;;;5.37;70.61;102074.80;107123;1286;72782;-82
2022/05/09 01:54:57;;;;;;;4.50;1.80;;;;;;;5.38;70.82;102075.23;106978;1287;60171;-82
2022/05/09 01:57:23;;;;;;;4.00;1.70;;;;;;;5.40;70.75;102075.13;106766;1287;60266;-82
2022/05/09 01:59:50;;;;;;;2.90;1.70;;;;;;;5.41;70.90;102071.87;106937;1287;75821;-82
2022/05/09 02:02:19;;;;;;;3.10;1.70;;;;;;;5.41;70.80;102077.48;106825;1287;71209;-83
2022/05/09 02:04:47;;;;;;;3.60;1.30;;;;;;;5.41;70.84;102077.46;105795;1287;72617;-82
2022/05/09 02:07:16;;;;;;;3.40;1.80;;;;;;;5.42;70.91;102079.34;106324;1287;62185;-82
2022/05/09 02:09:45;;;;;;;3.20;1.40;;;;;;;5.42;71.28;102079.69;106297;1287;61534;-82
2022/05/09 02:12:13;;;;;;;2.70;1.70;;;;;;;5.40;70.87;102077.38;106481;1287;75810;-82
2022/05/09 02:14:40;;;;;;;5.40;1.70;;;;;;;5.39;71.24;102081.54;105347;1287;71122;-82
2022/05/09 02:17:08;;;;;;;4.50;1.60;;;;;;;5.36;71.18;102077.70;105249;1287;72951;-82
2022/05/09 02:19:35;;;;;;;5.30;1.90;;;;;;;5.34;71.40;102080.27;105446;1287;61970;-82
2022/05/09 02:22:02;;;;;;;4.40;2.30;;;;;;;5.31;71.59;102085.19;105480;1287;61509;-82
2022/05/09 02:24:29;;;;;;;5.40;1.70;;;;;;;5.28;71.61;102085.73;105604;1287;75746;-82
2022/05/09 02:26:57;;;;;;;3.60;1.60;;;;;;;5.26;71.78;102081.20;105511;1287;72282;-81
2022/05/09 02:29:25;;;;;;;3.90;1.90;;;;;;;5.24;71.79;102081.15;105569;1287;73685;-82
2022/05/09 02:31:52;;;;;;;5.30;1.80;;;;;;;5.22;72.14;102077.22;105571;1287;62639;-82
2022/05/09 02:34:19;;;;;;;6.20;1.80;;;;;;;5.21;72.42;102075.87;105131;1287;61984;-83
2022/05/09 02:36:46;;;;;;;2.40;1.40;;;;;;;5.18;72.15;102073.11;105314;1287;76007;-82
2022/05/09 02:39:12;;;;;;;6.70;2.20;;;;;;;5.16;72.25;102074.64;105405;1287;61855;-82
2022/05/09 02:41:39;;;;;;;2.60;1.50;;;;;;;5.14;72.39;102070.98;105397;1287;62011;-82
2022/05/09 02:44:06;;;;;;;7.30;2.10;;;;;;;5.11;72.74;102071.83;105481;1287;62792;-83
2022/05/09 02:46:32;;;;;;;4.70;1.80;;;;;;;5.10;72.76;102069.30;105602;1287;60557;-83
2022/05/09 02:48:59;;;;;;;3.90;1.60;;;;;;;5.08;72.65;102064.17;105710;1287;76794;-82
2022/05/09 02:51:29;;;;;;;6.20;1.80;;;;;;;5.06;72.86;102064.16;105681;1287;72109;-81
2022/05/09 02:53:56;;;;;;;3.70;1.60;;;;;;;5.04;73.00;102066.73;105300;1287;73593;-82
2022/05/09 02:56:24;;;;;;;3.10;1.60;;;;;;;5.02;72.93;102067.35;105524;1287;62236;-82
2022/05/09 02:58:51;;;;;;;4.60;1.70;;;;;;;5.01;72.95;102066.61;105512;1286;61909;-81
2022/05/09 03:01:18;;;;;;;2.60;1.40;;;;;;;5.00;73.16;102066.31;105351;1288;76620;-81
2022/05/09 03:06:31;;;;;;;3.10;1.70;;;;;;;4.99;73.23;102072.14;105765;1286;73022;-81
2022/05/09 03:08:58;;;;;;;5.40;1.80;;;;;;;4.99;73.47;102073.04;105415;1287;62026;-82
2022/05/09 03:11:24;;;;;;;3.50;1.50;;;;;;;4.99;73.69;102073.23;105335;1288;62100;-82
2022/05/09 03:13:51;;;;;;;4.70;1.60;;;;;;;4.99;73.44;102071.82;105414;1287;62016;-82
2022/05/09 03:16:17;;;;;;;3.10;1.50;;;;;;;4.99;73.54;102069.17;105362;1286;72015;-82
2022/05/09 03:18:44;;;;;;;6.00;1.60;;;;;;;4.99;73.55;102066.39;105550;1286;71823;-81
2022/05/09 03:21:11;;;;;;;2.30;1.20;;;;;;;4.98;73.48;102065.55;105475;1287;60523;-82
2022/05/09 03:23:37;;;;;;;3.40;1.80;;;;;;;4.97;73.62;102061.58;105530;1287;60590;-81
2022/05/09 03:26:07;;;;;;;3.80;1.70;;;;;;;4.95;73.49;102059.95;105482;1288;62285;-80
2022/05/09 03:28:33;;;;;;;4.20;1.90;;;;;;;4.95;73.79;102058.23;105665;1287;72747;-81
2022/05/09 03:31:00;;;;;;;4.40;1.50;;;;;;;4.94;73.53;102061.08;105575;1287;72982;-82
2022/05/09 03:33:27;;;;;;;4.40;1.30;;;;;;;4.93;73.71;102061.33;105647;1287;61877;-82
2022/05/09 03:35:56;;;;;;;3.80;2.00;;;;;;;4.93;73.97;102062.42;105374;1287;62608;-82
2022/05/09 03:38:22;;;;;;;3.30;1.60;;;;;;;4.92;73.77;102058.77;105552;1287;75112;-82
2022/05/09 03:40:49;;;;;;;2.40;1.50;;;;;;;4.90;73.99;102059.07;105807;1287;62109;-81
2022/05/09 03:43:15;;;;;;;6.90;1.90;;;;;;;4.88;73.84;102059.21;105872;1287;62027;-81
2022/05/09 03:45:45;;;;;;;3.20;1.90;;;;;;;4.86;74.17;102059.48;105683;1287;61131;-82
2022/05/09 03:48:12;;;;;;;8.40;1.80;;;;;;;4.86;74.21;102061.45;105562;1287;62214;-82
2022/05/09 03:50:40;;;;;;;5.10;2.10;;;;;;;4.85;74.35;102059.93;105585;1287;76994;-82
2022/05/09 03:53:06;;;;;;;3.40;1.80;;;;;;;4.85;74.54;102058.18;105560;1287;72376;-81
2022/05/09 03:55:33;;;;;;;8.70;2.30;;;;;;;4.85;74.50;102055.03;105493;1287;60109;-81
2022/05/09 03:58:01;;;;;;;2.70;1.50;;;;;;;4.84;74.59;102058.39;105549;1287;62650;-82
2022/05/09 04:00:32;;;;;;;5.40;1.80;;;;;;;4.84;74.66;102055.05;105589;1287;62224;-82
2022/05/09 04:03:00;;;;;;;3.20;1.70;;;;;;;4.86;74.68;102054.44;106823;1287;75821;-81
2022/05/09 04:05:30;;;;;;;6.70;1.70;;;;;;;4.86;74.81;102058.44;106755;1287;71944;-81
2022/05/09 04:07:59;;;;;;;3.50;2.10;;;;;;;4.88;74.67;102051.11;107006;1287;74365;-81
2022/05/09 04:10:29;;;;;;;3.60;1.80;;;;;;;4.90;75.07;102049.77;107063;1287;62216;-81
2022/05/09 04:12:57;;;;;;;4.20;2.00;;;;;;;4.93;74.87;102051.86;107008;1287;60605;-81
2022/05/09 04:18:09;;;;;;;;;;;;;;;5.01;75.16;102053.95;106376;1286;71376;-84
2022/05/09 04:20:37;;;;;;;3.10;1.50;;;;;;;5.07;75.15;102058.48;106205;1287;73906;-84
2022/05/09 04:23:06;;;;;;;6.30;1.70;;;;;;;5.13;75.08;102055.56;107001;1287;61197;-85
2022/05/09 04:25:32;;;;;;;3.60;1.90;;;;;;;5.21;75.17;102054.70;105929;1287;63193;-86
2022/05/09 04:28:02;;;;;;;5.10;2.40;;;;;;;5.28;75.07;102062.27;105572;1287;79446;-84
2022/05/09 04:30:31;;;;;;;5.20;1.80;;;;;;;5.36;74.87;102062.96;105784;1287;72399;-85
2022/05/09 04:32:58;;;;;;;3.10;2.00;;;;;;;5.43;75.10;102067.16;106138;1286;73190;-84
2022/05/09 04:35:24;;;;;;;7.40;2.40;;;;;;;5.50;74.75;102062.83;105662;1287;61172;-84
2022/05/09 04:37:53;;;;;;;3.70;1.50;;;;;;;5.58;74.66;102067.52;105479;1288;60680;-85
2022/05/09 04:40:28;;;;;;;3.70;1.80;;;;;;;5.65;74.51;102064.20;105249;1287;75689;-83
2022/05/09 04:42:56;;;;;;;6.70;2.60;;;;;;;5.74;74.50;102064.83;105438;1287;72709;-83
2022/05/09 04:45:24;;;;;;;5.60;1.50;;;;;;;5.81;74.20;102066.23;105346;1287;72834;-86
2022/05/09 04:47:51;;;;;;;5.20;2.10;;;;;;;5.89;74.38;102063.73;106122;1288;62082;-84
2022/05/09 04:50:21;;;;;;;5.40;2.50;;;;;;;5.96;74.01;102064.67;105548;1287;61772;-84
2022/05/09 04:52:48;;;;;;;5.00;2.40;;;;;;;6.04;73.83;102062.33;105384;1287;75596;-83
2022/05/09 04:55:17;;;;;;;6.20;1.90;;;;;;;6.13;73.84;102057.66;105352;1288;72254;-84
2022/05/09 04:57:44;;;;;;;4.50;1.50;;;;;;;6.23;73.55;102061.52;105462;1286;70349;-84
2022/05/09 05:00:14;;;;;;;4.00;1.90;;;;;;;6.31;73.29;102064.95;105652;1286;62109;-84
2022/05/09 05:02:41;;;;;;;7.40;2.70;;;;;;;6.40;73.31;102065.49;105229;1287;60500;-84
2022/05/09 05:05:09;;;;;;;8.00;1.90;;;;;;;6.49;73.01;102063.25;105164;1288;76848;-83
2022/05/09 05:07:36;;;;;;;3.00;1.70;;;;;;;6.58;72.65;102068.73;105246;1287;72378;-85
2022/05/09 05:10:04;;;;;;;5.20;1.70;;;;;;;6.67;72.63;102064.55;105597;1287;73969;-84
2022/05/09 05:12:31;;;;;;;7.50;2.30;;;;;;;6.75;72.54;102063.91;105543;1287;62434;-84
2022/05/09 05:15:00;;;;;;;4.60;2.30;;;;;;;6.84;72.29;102064.31;105363;1287;62016;-84
2022/05/09 05:17:27;;;;;;;7.20;2.20;;;;;;;6.94;72.29;102066.17;105533;1287;79049;-84
2022/05/09 05:19:54;;;;;;;7.80;1.90;;;;;;;7.01;72.54;102063.91;105515;1287;71274;-83
2022/05/09 05:22:21;;;;;;;9.50;2.50;;;;;;;7.09;72.58;102068.77;105698;1287;72979;-85
2022/05/09 05:24:52;;;;;;;4.90;2.40;;;;;;;7.18;72.72;102068.38;105590;1288;62148;-86
2022/05/09 05:27:21;;;;;;;8.80;1.80;;;;;;;7.29;72.51;102072.96;105406;1288;62043;-85
2022/05/09 05:29:56;;;;;;;4.20;2.10;;;;;;;7.42;72.22;102071.66;105474;1287;75808;-85
2022/05/09 05:32:26;;;;;;;5.90;2.40;;;;;;;7.56;71.86;102074.04;105344;1287;71606;-85
2022/05/09 05:34:53;;;;;;;4.30;1.70;;;;;;;7.70;72.11;102079.25;105437;1287;74073;-85
2022/05/09 05:37:20;;;;;;;7.70;3.00;;;;;;;7.83;72.04;102079.13;105547;1287;61130;-84
2022/05/09 05:39:47;;;;;;;3.90;1.80;;;;;;;7.97;71.90;102077.14;105787;1287;62714;-84
2022/05/09 05:42:17;;;;;;;4.60;2.00;;;;;;;8.08;71.80;102077.80;105617;1287;75737;-85
2022/05/09 05:44:47;;;;;;;10.10;3.20;;;;;;;8.22;71.94;102074.04;105878;1287;71357;-84
2022/05/09 05:47:16;;;;;;;6.60;1.60;;;;;;;8.37;71.56;102076.72;105577;1287;73026;-83
2022/05/09 05:49:43;;;;;;;3.50;1.90;;;;;;;8.49;71.41;102075.39;105434;1287;61898;-84
2022/05/09 05:52:11;;;;;;;5.50;2.10;;;;;;;8.59;70.91;102072.59;105374;1288;61360;-84
2022/05/09 05:54:41;;;;;;;6.10;2.00;;;;;;;8.71;70.74;102076.69;105736;1287;75898;-84
2022/05/09 05:57:16;;;;;;;7.40;1.90;;;;;;;8.84;70.73;102069.45;105508;1287;71463;-84
2022/05/09 05:59:54;;;;;;;6.00;2.00;;;;;;;8.97;70.46;102067.30;105615;1287;73386;-84
2022/05/09 06:02:23;;;;;;;7.20;1.80;;;;;;;9.08;69.89;102065.85;105745;1287;62171;-84
2022/05/09 06:04:50;;;;;;;4.90;1.80;;;;;;;9.18;69.79;102067.63;105644;1287;61985;-84
2022/05/09 06:07:19;;;;;;;9.40;3.00;;;;;;;9.28;69.75;102073.70;105503;1287;75894;-85
2022/05/09 06:09:47;;;;;;;7.90;2.40;;;;;;;9.38;69.79;102077.06;105742;1287;72382;-86
2022/05/09 06:12:16;;;;;;;5.10;1.90;;;;;;;9.49;69.28;102070.77;105735;1287;74363;-85
2022/05/09 06:14:43;;;;;;;7.80;2.20;;;;;;;9.59;68.55;102073.61;105705;1286;62061;-84
2022/05/09 06:17:10;;;;;;;6.50;1.90;;;;;;;9.66;68.33;102069.48;105691;1286;62090;-85
2022/05/09 06:19:38;;;;;;;9.70;2.80;;;;;;;9.79;68.42;102072.17;105460;1288;75737;-84
2022/05/09 06:22:04;;;;;;;6.90;3.10;;;;;;;10.03;67.42;102068.98;105661;1288;72474;-84
2022/05/09 06:24:31;;;;;;;7.30;3.20;;;;;;;10.30;66.87;102066.79;105961;1287;73021;-84
2022/05/09 06:26:58;;;;;;;8.30;2.70;;;;;;;10.54;66.36;102064.80;105826;1287;62467;-84
2022/05/09 06:29:24;;;;;;;7.80;3.20;;;;;;;10.78;65.69;102063.60;106294;1287;62029;-85
2022/05/09 06:32:11;;;;;;;9.10;3.20;;;;;;;11.04;65.15;102064.86;105010;1287;77833;-84
2022/05/09 06:34:38;;;;;;;7.80;3.20;;;;;;;11.25;64.58;102064.23;105126;1287;70654;-85
2022/05/09 06:37:04;;;;;;;7.30;3.20;;;;;;;11.51;64.16;102067.41;105045;1287;62983;-84
2022/05/09 06:39:31;;;;;;;8.30;3.00;;;;;;;11.74;63.72;102066.92;105113;1287;62582;-85
2022/05/09 06:41:58;;;;;;;9.30;3.20;;;;;;;11.96;63.34;102068.76;105200;1287;62616;-84
2022/05/09 06:44:24;;;;;;;8.60;3.10;;;;;;;12.15;63.09;102072.00;104874;1287;75661;-85
2022/05/09 06:46:51;;;;;;;11.40;3.40;;;;;;;12.31;62.02;102068.33;105168;1287;60678;-86
2022/05/09 06:49:17;;;;;;;9.70;3.20;;;;;;;12.45;61.21;102068.32;105182;1288;62027;-84
2022/05/09 06:51:45;;;;;;;7.30;3.00;;;;;;;12.58;61.08;102067.86;105283;1287;60230;-84
2022/05/09 06:54:11;;;;;;;7.70;3.10;;;;;;;12.75;60.70;102074.04;104973;1288;61925;-84
2022/05/09 06:56:38;;;;;;;8.30;3.00;;;;;;;12.88;60.32;102074.40;105163;1287;60251;-84
2022/05/09 06:59:04;;;;;;;8.60;3.00;;;;;;;13.02;60.41;102069.66;105168;1287;61954;-84
2022/05/09 07:01:33;;;;;;;8.60;3.10;;;;;;;13.19;59.86;102070.83;105283;1287;61988;-85
2022/05/09 07:04:00;;;;;;;8.90;3.40;;;;;;;13.34;59.44;102074.02;105108;1287;62101;-85
2022/05/09 07:06:26;;;;;;;9.00;3.90;;;;;;;13.50;58.99;102073.77;105076;1287;61986;-85
2022/05/09 07:08:53;;;;;;;11.00;4.00;;;;;;;13.66;57.88;102074.49;105214;1287;62010;-85
2022/05/09 07:11:20;;;;;;;12.70;3.90;;;;;;;13.74;57.28;102072.55;105255;1287;71427;-85
2022/05/09 07:13:49;;;;;;;8.60;3.70;;;;;;;13.81;56.82;102072.31;105149;1287;71789;-84
2022/05/09 07:16:17;;;;;;;11.10;4.00;;;;;;;13.90;56.72;102070.09;106974;1286;60703;-85
2022/05/09 07:18:44;;;;;;;12.30;4.50;;;;;;;14.01;56.62;102071.79;106978;1287;60591;-84
2022/05/09 07:21:11;;;;;;;11.70;3.60;;;;;;;14.18;56.60;102072.45;105460;1287;74391;-84
2022/05/09 07:23:37;;;;;;;8.00;3.30;;;;;;;14.36;56.06;102073.94;105508;1287;72226;-85
2022/05/09 07:26:07;;;;;;;9.30;3.60;;;;;;;14.50;55.49;102074.50;105507;1287;73338;-84
2022/05/09 07:28:33;;;;;;;9.10;3.50;;;;;;;14.57;55.27;102070.96;105401;1287;62185;-84
2022/05/09 07:31:00;;;;;;;10.20;3.90;;;;;;;14.65;55.22;102070.30;105026;1288;62148;-84
2022/05/09 07:33:28;;;;;;;11.10;3.80;;;;;;;14.79;55.08;102068.34;105055;1287;75716;-84
2022/05/09 07:35:56;;;;;;;11.10;3.60;;;;;;;14.94;54.30;102069.56;105058;1287;72438;-84
2022/05/09 07:38:23;;;;;;;10.00;4.20;;;;;;;15.11;54.02;102063.60;105007;1288;74281;-85
2022/05/09 07:40:49;;;;;;;9.60;4.10;;;;;;;15.22;53.46;102063.56;104877;1287;62258;-84
2022/05/09 07:43:20;;;;;;;10.00;3.80;;;;;;;15.32;53.37;102063.94;105043;1287;61967;-84
2022/05/09 07:45:51;;;;;;;11.40;3.60;;;;;;;15.40;53.14;102066.23;105216;1287;76265;-84
2022/05/09 07:48:21;;;;;;;10.50;4.20;;;;;;;15.46;52.55;102067.50;105183;1287;71192;-84
2022/05/09 07:50:49;;;;;;;9.10;3.70;;;;;;;15.54;52.60;102069.46;105192;1287;72423;-84
2022/05/09 07:53:22;;;;;;;10.60;3.90;;;;;;;15.67;52.42;102074.59;104948;1288;62203;-83
2022/05/09 07:55:49;;;;;;;8.30;3.20;;;;;;;15.81;52.18;102081.23;105196;1287;62080;-84
2022/05/09 07:58:15;;;;;;;7.30;2.90;;;;;;;15.95;51.62;102081.76;105213;1287;75709;-84
2022/05/09 08:00:43;;;;;;;10.10;3.30;;;;;;;16.08;51.65;102085.06;105133;1287;62273;-84
2022/05/09 08:03:22;;;;;;;11.50;3.70;;;;;;;16.21;50.90;102081.75;104759;1288;73044;-84
2022/05/09 08:05:50;;;;;;;8.60;3.70;;;;;;;16.31;50.65;102082.41;105223;1287;62033;-84
2022/05/09 08:08:17;;;;;;;8.90;3.50;;;;;;;16.44;50.61;102075.88;104817;1288;62055;-85
2022/05/09 08:10:45;;;;;;;8.00;3.10;;;;;;;16.56;49.94;102074.30;105888;1287;75627;-84
2022/05/09 08:13:14;;;;;;;8.60;3.30;;;;;;;16.64;48.90;102073.40;105197;1287;71437;-84
2022/05/09 08:15:41;;;;;;;8.90;3.60;;;;;;;16.74;48.44;102071.11;105291;1288;74790;-84
2022/05/09 08:18:07;;;;;;;9.40;3.40;;;;;;;16.85;47.85;102070.76;104971;1288;63927;-84
2022/05/09 08:20:35;;;;;;;10.90;3.40;;;;;;;17.01;47.87;102072.41;105217;1287;62020;-85
2022/05/09 08:23:07;;;;;;;7.50;2.90;;;;;;;17.15;47.10;102068.35;105229;1287;77828;-84
2022/05/09 08:25:36;;;;;;;9.50;3.00;;;;;;;17.27;46.65;102064.14;105329;1287;71862;-84
2022/05/09 08:28:04;;;;;;;7.00;2.60;;;;;;;17.39;46.07;102061.58;105276;1288;72819;-84
2022/05/09 08:30:34;;;;;;;7.30;2.90;;;;;;;17.47;44.79;102057.02;105604;1287;62049;-84
2022/05/09 08:33:09;;;;;;;7.80;3.00;;;;;;;17.54;45.58;102062.22;105258;1288;62157;-84
2022/05/09 08:35:36;;;;;;;8.80;3.00;;;;;;;17.64;45.03;102059.62;105401;1287;77745;-84
2022/05/09 08:38:03;;;;;;;6.70;2.70;;;;;;;17.75;44.57;102058.80;105163;1287;71236;-84
2022/05/09 08:40:37;;;;;;;5.60;2.50;;;;;;;17.83;44.71;102061.83;105349;1287;62103;-84
2022/05/09 08:43:23;;;;;;;8.50;3.10;;;;;;;17.94;44.84;102059.20;105145;1288;62184;-84
2022/05/09 08:46:29;;;;;;;10.90;3.80;;;;;;;18.11;44.55;102059.25;104672;1290;60534;-84
2022/05/09 08:49:12;;;;;;;8.10;3.20;;;;;;;18.35;44.29;102061.38;105177;1287;77242;-84
2022/05/09 08:51:57;;;;;;;7.20;2.70;;;;;;;18.51;43.76;102055.48;105252;1287;71823;-84
2022/05/09 08:54:25;;;;;;;8.60;2.90;;;;;;;18.64;43.02;102056.98;105145;1288;72933;-85
2022/05/09 08:56:59;;;;;;;9.90;3.30;;;;;;;18.80;42.91;102058.94;105000;1288;62167;-84
2022/05/09 08:59:37;;;;;;;9.00;2.70;;;;;;;18.92;42.20;102060.17;104957;1288;60045;-84
2022/05/09 09:02:15;;;;;;;8.50;2.80;;;;;;;19.02;41.27;102056.16;105038;1287;76864;-84
2022/05/09 09:04:49;;;;;;;9.20;2.90;;;;;;;19.18;40.20;102053.72;104935;1288;70700;-84
2022/05/09 09:07:30;;;;;;;6.80;2.90;;;;;;;19.31;40.21;102053.70;106665;1287;73006;-85
2022/05/09 09:10:23;;;;;;;8.00;2.80;;;;;;;19.41;39.64;102049.81;106955;1287;60345;-84
2022/05/09 09:13:05;;;;;;;7.40;2.40;;;;;;;19.54;39.58;102048.15;106978;1287;60335;-85
2022/05/09 09:15:50;;;;;;;8.40;2.50;;;;;;;19.69;38.92;102051.00;106992;1287;75761;-85
2022/05/09 09:18:35;;;;;;;6.30;2.80;;;;;;;19.77;38.40;102050.50;106637;1288;71432;-84
2022/05/09 09:21:29;;;;;;;5.70;2.10;;;;;;;19.87;37.17;102049.16;105217;1287;72496;-85
2022/05/09 09:24:24;;;;;;;7.00;2.40;;;;;;;20.05;37.83;102048.66;105135;1287;62171;-85
2022/05/09 09:27:13;;;;;;;7.20;1.90;;;;;;;20.15;37.73;102043.70;105053;1288;62317;-84
2022/05/09 09:29:51;;;;;;;4.10;1.30;;;;;;;20.13;36.38;102040.14;105090;1287;76721;-85
2022/05/09 09:32:19;;;;;;;8.30;1.90;;;;;;;20.09;35.75;102037.52;105250;1287;70773;-84
2022/05/09 09:35:00;;;;;;;3.30;1.30;;;;;;;20.09;36.02;102033.75;104842;1287;74239;-84
2022/05/09 09:37:49;;;;;;;5.60;1.60;;;;;;;20.14;34.85;102031.39;104905;1288;61914;-84
2022/05/09 09:40:16;;;;;;;5.30;1.60;;;;;;;20.18;34.15;102023.23;104979;1288;62113;-84
2022/05/09 09:42:43;;;;;;;7.90;2.40;;;;;;;20.18;33.56;102021.03;104805;1288;409105;-84
2022/05/09 09:45:30;;;;;;;6.40;1.70;;;;;;;20.20;34.13;102015.97;105157;1287;72768;-84
2022/05/09 09:48:08;;;;;;;7.00;1.80;;;;;;;20.25;34.10;102014.94;105095;1287;74131;-84
2022/05/09 09:50:36;;;;;;;6.10;1.70;;;;;;;20.27;33.87;102010.13;105426;1287;62137;-85
2022/05/09 09:53:03;;;;;;;3.30;1.50;;;;;;;20.31;34.21;102004.20;105226;1287;62173;-84
2022/05/09 09:55:39;;;;;;;5.80;1.50;;;;;;;20.39;34.98;102002.75;105392;1287;76581;-85
2022/05/09 09:58:22;;;;;;;6.40;2.30;;;;;;;20.50;34.45;102007.88;105229;1285;72848;-84
2022/05/09 10:01:07;;;;;;;5.50;1.70;;;;;;;20.57;34.06;102006.89;105365;1287;74034;-84
2022/05/09 10:03:40;;;;;;;7.60;1.60;;;;;;;20.70;33.83;102001.45;105304;1287;62173;-84
2022/05/09 10:06:34;;;;;;;3.10;1.10;;;;;;;20.83;34.14;102000.77;105295;1287;62099;-84
2022/05/09 10:09:08;;;;;;;6.10;1.50;;;;;;;20.82;32.04;101997.08;106900;1287;76126;-84
2022/05/09 10:11:35;;;;;;;3.20;1.10;;;;;;;20.85;30.60;101997.57;107011;1287;72733;-84
2022/05/09 10:14:05;;;;;;;5.50;1.70;;;;;;;20.85;29.79;101985.65;106309;1287;72816;-84
2022/05/09 10:16:41;;;;;;;4.40;1.40;;;;;;;20.91;30.56;101975.51;105292;1287;62121;-84
2022/05/09 10:19:11;;;;;;;6.00;1.90;;;;;;;20.99;31.72;101977.64;105204;1288;62326;-84
2022/05/09 10:24:57;;;;;;;7.60;1.50;;;;;;;21.13;30.41;101971.20;105359;1287;73821;-85
2022/05/09 10:27:28;;;;;;;6.30;1.50;;;;;;;21.12;30.44;101966.88;105019;1288;72989;-86
2022/05/09 10:29:59;;;;;;;6.10;1.70;;;;;;;21.11;30.28;101962.86;105377;1287;60581;-85
2022/05/09 10:32:55;;;;;;;8.70;1.50;;;;;;;21.14;30.96;101962.02;105119;1287;60312;-86
2022/05/09 10:35:34;;;;;;;5.50;1.30;;;;;;;21.29;31.48;101958.54;105743;1287;75559;-85
2022/05/09 10:38:18;;;;;;;6.30;1.60;;;;;;;21.44;31.44;101947.27;106642;1287;71516;-84
2022/05/09 10:40:50;;;;;;;4.40;1.60;;;;;;;21.48;30.82;101947.21;106684;1287;73092;-85
2022/05/09 10:43:28;;;;;;;2.80;1.10;;;;;;;21.49;30.52;101942.96;106310;1288;61747;-84
2022/05/09 10:45:54;;;;;;;4.50;1.30;;;;;;;21.49;29.90;101942.83;105512;1288;62061;-85
2022/05/09 10:48:35;;;;;;;4.00;1.40;;;;;;;21.53;30.36;101939.70;104945;1288;76882;-85
2022/05/09 10:51:12;;;;;;;3.60;1.30;;;;;;;21.62;29.86;101933.58;105045;1287;71488;-84
2022/05/09 10:54:10;;;;;;;4.80;2.00;;;;;;;21.64;30.83;101931.40;105031;1287;75612;-84
2022/05/09 10:56:49;;;;;;;3.40;1.10;;;;;;;21.79;31.13;101935.58;105276;1287;62147;-84
2022/05/09 10:59:22;;;;;;;3.80;1.20;;;;;;;21.98;31.10;101935.80;105999;1287;62293;-84
2022/05/09 11:02:05;;;;;;;6.40;1.40;;;;;;;22.09;30.07;101929.75;105171;1287;75794;-84
2022/05/09 11:04:34;;;;;;;4.30;1.10;;;;;;;22.15;30.50;101928.32;105253;1287;71475;-85
2022/05/09 11:07:27;;;;;;;2.80;1.00;;;;;;;22.25;30.25;101925.27;105124;1287;74107;-85
2022/05/09 11:10:00;;;;;;;3.40;0.90;;;;;;;22.36;29.80;101920.79;105097;1287;62665;-85
2022/05/09 11:13:04;;;;;;;4.80;1.50;;;;;;;22.38;29.91;101918.91;104951;1288;62104;-85
2022/05/09 11:16:00;;;;;;;5.30;1.30;;;;;;;22.43;29.75;101914.83;105266;1287;77036;-85
2022/05/09 11:18:32;;;;;;;3.30;1.10;;;;;;;22.44;29.59;101905.50;105088;1287;71153;-85
2022/05/09 11:21:22;;;;;;;3.10;1.20;;;;;;;22.51;30.57;101897.96;105174;1287;75182;-85
2022/05/09 11:24:20;;;;;;;6.40;1.30;;;;;;;22.64;30.63;101898.48;105116;1287;64298;-85
2022/05/09 11:27:02;;;;;;;3.00;1.20;;;;;;;22.84;30.38;101902.11;105159;1288;61967;-85
2022/05/09 11:29:49;;;;;;;5.80;1.00;;;;;;;22.95;30.23;101897.66;105162;1287;75375;-85
2022/05/09 11:32:37;;;;;;;4.00;1.50;;;;;;;23.05;29.72;101893.42;105303;1287;71593;-85
2022/05/09 11:35:27;;;;;;;3.10;1.20;;;;;;;23.01;28.81;101890.17;105244;1286;73484;-85
2022/05/09 11:38:31;;;;;;;4.40;1.20;;;;;;;22.92;29.99;101887.35;105128;1288;62224;-85
2022/05/09 11:41:11;;;;;;;3.80;1.10;;;;;;;23.01;30.03;101883.09;105633;1287;62046;-85
2022/05/09 11:43:56;;;;;;;2.30;0.90;;;;;;;23.06;29.49;101881.81;105048;1287;77435;-85
2022/05/09 11:47:00;;;;;;;4.60;1.10;;;;;;;23.03;29.34;101877.98;105246;1287;71920;-85
2022/05/09 11:49:44;;;;;;;3.20;1.50;;;;;;;23.24;29.89;101881.08;105685;1287;73073;-85
2022/05/09 11:52:24;;;;;;;4.40;1.40;;;;;;;23.35;29.44;101879.55;105220;1287;62132;-85
2022/05/09 11:54:53;;;;;;;4.00;1.10;;;;;;;23.55;30.03;101878.59;105057;1289;62126;-86
2022/05/09 11:57:26;;;;;;;4.30;1.30;;;;;;;23.77;29.49;101871.27;105320;1287;75842;-85